Soldiers Grove, Wisconsin
Current Conditions -  °F | °C
As of 11:55 PM on Sunday 19 Oct 2014 (Local Time) from KY51 Reporting Station
Clear Clear  
Wind Chill: 50°   Ceiling: Unl
Heat Index: 50°   Visibility: 10mi
Dew Point: 45°   Wind: 6mph
Humidity: 82%   Direction: 250°WSW
Pressure: 29.8"   Gusts: NA
Location:  43.4°N, 90.77°W
Report Text: KY51 200455Z AUTO 25005KT 10SM CLR 10/07 A2980 RMK AO1 T01000070
Loading
Personal Weather Stations






























Interactive Weather Map
Tropical Storm Tracking
New forecast layout! Learn more

10-Day Weather Forecast

Advertisements
Track Severe Weather on mobile